Archival Weather

Al Ahsa

Al Ahsa, Saudi Arabia (OEAH)

Report from: Friday, May 26, 2023 3:00 AM +03
Current time: Monday, July 22, 2024 1:32 PM +03

Current weather – Weather history – Daily summaries
Weather forecast

Temperature28.0°C (82.4°F)
Heat index27.3°C (81.1°F)
Dew point8.0°C (46.4°F)
Winds 5 kts (2.6 m/s, 5.8 mph) Northwest (310°)
Clouds Sky clear
Altimeter29.74 in.Hg (1007 mB)
Relative humidity28 %
Density altitude1,862 ft. (567 m)
Remarks Ceiling and visibility OK
No significant changes expected in the next two hours
Flight conditions Visual Meteorological Conditions
Raw dataOEAH 260000Z 31005KT CAVOK 28/08 Q1007 NOSIG
An error has occurred. This application may no longer respond until reloaded. Reload 🗙